Time;durP1;ratioP1;P1;durP2;ratioP2;P2;SDS_P1;SDS_P2;PMS_P1;PMS_P2;Temp;Humidity;BMP_temperature;BMP_pressure;BME280_temperature;BME280_humidity;BME280_pressure;Samples;Min_cycle;Max_cycle;Signal;HPM_P1;HPM_P2
2021/03/05 00:00:07;;;;;;;7.40;4.40;;;4.70;99.90;;;;;;5071253;28;20060;-68
2021/03/05 00:02:33;;;;;;;12.60;5.60;;;4.80;99.90;;;;;;5070480;28;20389;-70
2021/03/05 00:04:59;;;;;;;10.30;5.10;;;4.90;99.90;;;;;;5079351;28;20026;-69
2021/03/05 00:07:25;;;;;;;11.45;4.70;;;4.70;99.90;;;;;;5072479;28;20040;-68
2021/03/05 00:09:50;;;;;;;8.38;5.28;;;4.70;99.90;;;;;;5070579;28;20055;-68
2021/03/05 00:12:16;;;;;;;10.45;4.90;;;4.70;99.90;;;;;;5069101;28;20043;-69
2021/03/05 00:14:43;;;;;;;10.77;4.72;;;4.70;99.90;;;;;;5059313;28;20468;-69
2021/03/05 00:17:09;;;;;;;9.88;5.00;;;4.70;99.90;;;;;;5072325;28;20036;-69
2021/03/05 00:19:34;;;;;;;13.45;5.00;;;4.70;99.90;;;;;;5060797;28;20040;-69
2021/03/05 00:22:00;;;;;;;14.73;4.88;;;4.60;99.90;;;;;;5075338;28;20025;-68
2021/03/05 00:24:25;;;;;;;7.25;4.82;;;4.50;99.90;;;;;;5076483;28;20032;-68
2021/03/05 00:26:51;;;;;;;7.85;4.75;;;4.50;99.90;;;;;;5071652;28;20388;-69
2021/03/05 00:29:17;;;;;;;7.03;4.90;;;4.40;99.90;;;;;;5059004;28;20025;-68
2021/03/05 00:31:43;;;;;;;7.95;4.55;;;4.30;99.90;;;;;;5074673;28;20020;-69
2021/03/05 00:34:08;;;;;;;6.47;4.80;;;4.20;99.90;;;;;;5076281;28;20058;-68
2021/03/05 00:36:34;;;;;;;8.95;4.32;;;4.10;99.90;;;;;;5076267;28;20067;-69
2021/03/05 00:39:00;;;;;;;7.97;4.50;;;4.10;99.90;;;;;;5074604;28;20025;-69
2021/03/05 00:41:26;;;;;;;8.88;4.50;;;4.00;99.90;;;;;;5073804;28;20036;-69
2021/03/05 00:43:51;;;;;;;7.13;4.65;;;4.00;99.90;;;;;;5076292;28;20028;-69
2021/03/05 00:46:17;;;;;;;8.88;5.20;;;4.00;99.90;;;;;;5075904;28;20370;-69
2021/03/05 00:48:43;;;;;;;7.28;4.78;;;4.00;99.90;;;;;;5075178;28;20020;-69
2021/03/05 00:51:08;;;;;;;7.18;4.78;;;3.90;99.90;;;;;;5071859;28;20028;-68
2021/03/05 00:53:34;;;;;;;7.55;4.53;;;3.80;99.90;;;;;;5076051;28;20028;-68
2021/03/05 00:55:59;;;;;;;10.27;4.85;;;3.80;99.90;;;;;;5075336;28;20032;-70
2021/03/05 00:58:25;;;;;;;9.48;5.00;;;3.70;99.90;;;;;;5072757;28;20041;-69
2021/03/05 01:00:51;;;;;;;12.90;5.20;;;3.60;99.90;;;;;;5075597;28;20021;-67
2021/03/05 01:03:16;;;;;;;9.05;5.10;;;3.60;99.90;;;;;;5075506;28;20024;-68
2021/03/05 01:05:42;;;;;;;10.60;4.72;;;3.60;99.90;;;;;;5073910;28;20021;-68
2021/03/05 01:08:08;;;;;;;10.52;4.85;;;3.60;99.90;;;;;;5075385;28;20024;-68
2021/03/05 01:10:34;;;;;;;11.15;4.35;;;3.50;99.90;;;;;;5074512;28;20031;-69
2021/03/05 01:12:59;;;;;;;13.90;4.65;;;3.40;99.90;;;;;;5075661;28;20029;-67
2021/03/05 01:15:25;;;;;;;9.90;4.95;;;3.40;99.90;;;;;;5075172;28;20090;-68
2021/03/05 01:17:51;;;;;;;12.85;4.72;;;3.40;99.90;;;;;;5075465;28;20043;-68
2021/03/05 01:20:19;;;;;;;6.80;4.28;;;3.40;99.90;;;;;;5073494;28;20094;-67
2021/03/05 01:22:45;;;;;;;;;;;3.40;99.90;;;;;;5075378;28;20082;-68
2021/03/05 01:25:15;;;;;;;6.75;4.25;;;3.30;99.90;;;;;;5075429;28;20325;-68
2021/03/05 01:27:41;;;;;;;13.68;5.38;;;3.30;99.90;;;;;;5075520;28;20477;-69
2021/03/05 01:30:07;;;;;;;12.57;4.88;;;3.30;99.90;;;;;;5074120;28;20033;-69
2021/03/05 01:32:33;;;;;;;13.50;5.15;;;3.20;99.90;;;;;;5075753;28;20503;-68
2021/03/05 01:34:59;;;;;;;12.07;5.18;;;3.20;99.90;;;;;;5075075;28;20575;-67
2021/03/05 01:37:25;;;;;;;8.30;4.70;;;3.20;99.90;;;;;;5071010;28;20042;-67
2021/03/05 01:39:50;;;;;;;8.80;4.93;;;3.20;99.90;;;;;;5073728;28;20044;-68
2021/03/05 01:42:16;;;;;;;11.38;5.85;;;3.10;99.90;;;;;;5073237;28;20082;-68
2021/03/05 01:44:42;;;;;;;12.77;5.68;;;3.10;99.90;;;;;;5074849;28;20032;-68
2021/03/05 01:47:26;;;;;;;10.93;4.85;;;3.10;99.90;;;;;;5075161;28;20016;-68
2021/03/05 01:49:52;;;;;;;9.25;4.65;;;3.00;99.90;;;;;;5073383;28;20123;-67
2021/03/05 01:52:18;;;;;;;12.80;4.88;;;3.00;99.90;;;;;;5074996;28;20509;-68
2021/03/05 01:54:43;;;;;;;13.45;5.05;;;3.00;99.90;;;;;;5074234;28;20082;-68
2021/03/05 01:57:10;;;;;;;12.18;5.05;;;3.00;99.90;;;;;;5073422;28;20489;-69
2021/03/05 01:59:36;;;;;;;9.27;4.75;;;3.00;99.90;;;;;;5074208;28;20536;-69
2021/03/05 02:02:07;;;;;;;12.57;5.53;;;3.00;99.90;;;;;;5069676;28;20115;-69
2021/03/05 02:04:34;;;;;;;10.82;5.20;;;2.90;99.90;;;;;;5074827;28;20039;-68
2021/03/05 02:07:09;;;;;;;12.38;4.68;;;2.90;99.90;;;;;;5074128;28;20106;-68
2021/03/05 02:09:35;;;;;;;11.52;5.63;;;2.90;99.90;;;;;;5072788;28;20023;-68
2021/03/05 02:12:03;;;;;;;13.18;5.35;;;2.90;99.90;;;;;;5073918;28;20410;-70
2021/03/05 02:14:29;;;;;;;10.75;4.50;;;2.90;99.90;;;;;;5074519;28;20020;-69
2021/03/05 02:17:05;;;;;;;10.68;5.32;;;2.90;99.90;;;;;;5074766;28;20519;-69
2021/03/05 02:19:56;;;;;;;16.20;5.57;;;2.80;99.90;;;;;;5072313;28;20507;-68
2021/03/05 02:23:03;;;;;;;13.63;6.05;;;2.80;99.90;;;;;;5074149;28;20115;-68
2021/03/05 02:26:06;;;;;;;10.50;5.15;;;2.80;99.90;;;;;;5073984;28;20024;-68
2021/03/05 02:28:54;;;;;;;11.70;5.20;;;2.90;99.90;;;;;;5074429;28;20455;-68
2021/03/05 02:31:43;;;;;;;9.00;3.72;;;2.80;99.90;;;;;;5072396;28;20430;-68
2021/03/05 02:34:45;;;;;;;13.63;5.32;;;2.90;99.90;;;;;;5073650;28;20028;-68
2021/03/05 02:37:12;;;;;;;12.23;5.00;;;2.90;99.90;;;;;;5030479;28;20037;-68
2021/03/05 02:39:51;;;;;;;8.43;4.78;;;2.80;99.90;;;;;;5073280;28;20473;-68
2021/03/05 02:42:30;;;;;;;14.30;4.95;;;2.90;99.90;;;;;;5073915;28;20061;-68
2021/03/05 02:45:00;;;;;;;10.50;3.90;;;2.90;99.90;;;;;;5070590;28;20181;-68
2021/03/05 02:47:27;;;;;;;9.02;3.70;;;2.90;99.90;;;;;;5072560;28;20388;-68
2021/03/05 02:49:55;;;;;;;11.98;3.85;;;2.90;99.90;;;;;;5072455;28;20396;-68
2021/03/05 02:52:21;;;;;;;9.50;4.28;;;2.80;99.90;;;;;;5072172;28;20033;-69
2021/03/05 02:54:56;;;;;;;11.45;3.90;;;2.80;99.90;;;;;;5073484;28;20055;-68
2021/03/05 02:57:25;;;;;;;8.48;4.72;;;2.80;99.90;;;;;;5073779;28;20358;-68
2021/03/05 02:59:51;;;;;;;13.85;3.80;;;2.80;99.90;;;;;;5073496;28;20035;-69
2021/03/05 03:02:31;;;;;;;14.38;5.10;;;2.80;99.90;;;;;;5072828;28;20028;-68
2021/03/05 03:04:58;;;;;;;8.50;3.50;;;2.80;99.90;;;;;;5072920;28;20020;-68
2021/03/05 03:07:25;;;;;;;15.85;3.95;;;2.70;99.90;;;;;;5072583;28;20043;-68
2021/03/05 03:09:51;;;;;;;16.13;3.42;;;2.70;99.90;;;;;;5073230;28;20166;-68
2021/03/05 03:12:18;;;;;;;8.35;3.25;;;2.70;99.90;;;;;;5073052;28;20051;-69
2021/03/05 03:14:45;;;;;;;9.30;3.05;;;2.70;99.90;;;;;;5072289;28;20109;-68
2021/03/05 03:17:14;;;;;;;13.82;2.97;;;2.70;99.90;;;;;;5071682;28;20040;-68
2021/03/05 03:19:44;;;;;;;14.98;3.35;;;2.70;99.90;;;;;;5072751;28;20036;-68
2021/03/05 03:22:10;;;;;;;11.32;2.88;;;2.70;99.90;;;;;;5072882;28;20508;-68
2021/03/05 03:24:36;;;;;;;12.05;2.78;;;2.70;99.90;;;;;;5070993;28;20040;-69
2021/03/05 03:27:02;;;;;;;19.08;3.22;;;2.70;99.90;;;;;;5073156;28;20024;-69
2021/03/05 03:29:28;;;;;;;9.10;2.92;;;2.60;99.90;;;;;;5071715;28;20028;-68
2021/03/05 03:31:54;;;;;;;10.65;2.78;;;2.60;99.90;;;;;;5070640;28;20111;-68
2021/03/05 03:34:21;;;;;;;10.93;2.78;;;2.60;99.90;;;;;;5069928;28;20489;-68
2021/03/05 03:36:49;;;;;;;9.82;2.72;;;2.60;99.90;;;;;;5072348;28;20060;-68
2021/03/05 03:39:15;;;;;;;11.13;2.63;;;2.60;99.90;;;;;;5071164;28;20432;-68
2021/03/05 03:41:40;;;;;;;11.10;2.83;;;2.60;99.90;;;;;;5067909;28;20036;-69
2021/03/05 03:44:09;;;;;;;17.15;2.65;;;2.60;99.90;;;;;;5070471;28;21358;-68
2021/03/05 03:46:38;;;;;;;18.40;2.45;;;2.60;99.90;;;;;;5071454;28;20040;-68
2021/03/05 03:49:11;;;;;;;13.38;1.98;;;2.50;99.90;;;;;;5071249;28;20074;-70
2021/03/05 03:51:59;;;;;;;16.83;3.25;;;2.50;99.90;;;;;;5070133;28;20041;-68
2021/03/05 03:54:26;;;;;;;14.07;3.63;;;2.50;99.90;;;;;;5070724;28;20081;-68
2021/03/05 03:56:54;;;;;;;6.55;2.08;;;2.50;99.90;;;;;;5070832;28;20036;-70
2021/03/05 03:59:22;;;;;;;11.57;3.25;;;2.40;99.90;;;;;;5071047;28;20085;-69
2021/03/05 04:01:49;;;;;;;20.83;4.22;;;2.40;99.90;;;;;;5072224;28;20108;-68
2021/03/05 04:04:17;;;;;;;15.05;2.45;;;2.40;99.90;;;;;;5070740;28;20062;-68
2021/03/05 04:06:49;;;;;;;25.92;2.85;;;2.40;99.90;;;;;;5071571;28;20496;-69
2021/03/05 04:09:16;;;;;;;14.23;2.40;;;2.30;99.90;;;;;;5071968;28;20112;-69
2021/03/05 04:11:42;;;;;;;8.13;1.85;;;2.30;99.90;;;;;;5072488;28;20082;-69
2021/03/05 04:14:08;;;;;;;13.00;3.40;;;2.30;99.90;;;;;;5071863;28;20115;-69
2021/03/05 04:16:35;;;;;;;7.57;2.42;;;2.30;99.90;;;;;;5072464;28;20040;-68
2021/03/05 04:19:01;;;;;;;8.73;2.80;;;2.30;99.90;;;;;;5072138;28;20052;-68
2021/03/05 04:21:32;;;;;;;12.88;3.50;;;2.30;99.90;;;;;;5071748;28;20131;-68
2021/03/05 04:23:57;;;;;;;5.38;2.20;;;2.30;99.90;;;;;;5072285;28;20025;-68
2021/03/05 04:26:23;;;;;;;13.68;3.55;;;2.40;99.90;;;;;;5070785;28;20119;-68
2021/03/05 04:28:48;;;;;;;16.48;2.42;;;2.40;99.90;;;;;;5070543;28;20043;-69
2021/03/05 04:31:14;;;;;;;16.95;3.40;;;2.40;99.90;;;;;;5071983;28;20115;-69
2021/03/05 04:33:40;;;;;;;11.40;2.72;;;2.40;99.90;;;;;;5072311;28;20392;-68
2021/03/05 04:36:06;;;;;;;9.45;2.78;;;2.40;99.90;;;;;;5072198;28;20417;-67
2021/03/05 04:38:32;;;;;;;15.00;2.33;;;2.40;99.90;;;;;;5072555;28;20029;-69
2021/03/05 04:40:57;;;;;;;8.05;2.22;;;2.30;99.90;;;;;;5071913;28;20043;-69
2021/03/05 04:43:23;;;;;;;9.35;2.30;;;2.30;99.90;;;;;;5071987;28;20033;-68
2021/03/05 04:45:49;;;;;;;10.90;2.15;;;2.30;99.90;;;;;;5070667;28;20032;-67
2021/03/05 04:48:15;;;;;;;16.60;2.95;;;2.30;99.90;;;;;;5071858;28;20692;-68
2021/03/05 04:50:40;;;;;;;13.43;1.83;;;2.20;99.90;;;;;;5070036;28;20035;-67
2021/03/05 04:53:06;;;;;;;15.55;2.53;;;2.20;99.90;;;;;;5070548;28;20059;-68
2021/03/05 04:55:32;;;;;;;8.73;1.73;;;2.20;99.90;;;;;;5071541;28;20028;-68
2021/03/05 04:57:58;;;;;;;14.05;2.28;;;2.10;99.90;;;;;;5071488;28;20025;-67
2021/03/05 05:00:24;;;;;;;7.60;2.38;;;2.10;99.90;;;;;;5070539;28;20241;-69
2021/03/05 05:02:49;;;;;;;13.27;2.47;;;2.00;99.90;;;;;;5071284;28;20037;-69
2021/03/05 05:05:15;;;;;;;14.10;2.53;;;2.00;99.90;;;;;;5072058;28;20025;-68
2021/03/05 05:07:59;;;;;;;17.52;2.33;;;2.00;99.90;;;;;;5075565;28;20098;-68
2021/03/05 05:10:25;;;;;;;11.27;2.40;;;1.90;99.90;;;;;;5074295;28;20045;-68
2021/03/05 05:12:51;;;;;;;11.00;2.05;;;1.90;99.90;;;;;;5075149;28;20040;-68
2021/03/05 05:15:17;;;;;;;11.20;1.75;;;1.90;99.90;;;;;;5072919;28;20161;-68
2021/03/05 05:17:42;;;;;;;8.25;2.03;;;1.90;99.90;;;;;;5075159;28;20465;-68
2021/03/05 05:20:09;;;;;;;5.57;2.00;;;1.80;99.90;;;;;;5075363;28;20028;-67
2021/03/05 05:22:36;;;;;;;6.82;1.45;;;1.80;99.90;;;;;;5073095;28;20044;-69
2021/03/05 05:25:03;;;;;;;13.63;1.80;;;1.80;99.90;;;;;;5072817;28;20020;-69
2021/03/05 05:27:29;;;;;;;16.27;3.45;;;1.70;99.90;;;;;;5073756;28;20036;-68
2021/03/05 05:29:54;;;;;;;23.60;2.75;;;1.70;99.90;;;;;;5075529;28;20034;-68
2021/03/05 05:32:20;;;;;;;13.15;2.28;;;1.70;99.90;;;;;;5074691;28;20155;-68
2021/03/05 05:34:45;;;;;;;12.95;2.28;;;1.70;99.90;;;;;;5073426;28;20032;-68
2021/03/05 05:37:11;;;;;;;10.95;1.92;;;1.70;99.90;;;;;;5074715;28;20081;-68
2021/03/05 05:39:37;;;;;;;8.02;2.63;;;1.70;99.90;;;;;;5074301;28;20040;-68
2021/03/05 05:42:08;;;;;;;13.55;2.13;;;1.70;99.90;;;;;;5073319;28;20058;-68
2021/03/05 05:44:34;;;;;;;12.13;2.55;;;1.60;99.90;;;;;;5068395;28;20039;-67
2021/03/05 05:47:01;;;;;;;13.40;2.85;;;1.60;99.90;;;;;;5075096;28;20392;-68
2021/03/05 05:49:28;;;;;;;11.85;2.45;;;1.60;99.90;;;;;;5073753;28;20029;-68
2021/03/05 05:51:57;;;;;;;9.77;2.33;;;1.60;99.90;;;;;;5072960;28;20032;-68
2021/03/05 05:54:23;;;;;;;18.58;4.07;;;1.60;99.90;;;;;;5074322;28;20036;-67
2021/03/05 05:56:52;;;;;;;7.82;1.60;;;1.60;99.90;;;;;;5073163;28;20511;-69
2021/03/05 05:59:18;;;;;;;13.13;3.20;;;1.60;99.90;;;;;;5075008;28;20108;-68
2021/03/05 06:01:46;;;;;;;6.97;1.92;;;1.60;99.90;;;;;;5074329;28;20021;-69
2021/03/05 06:04:12;;;;;;;10.25;2.55;;;1.60;99.90;;;;;;5074469;28;20044;-69
2021/03/05 06:06:38;;;;;;;12.32;2.35;;;1.60;99.90;;;;;;5073808;28;20384;-67
2021/03/05 06:09:04;;;;;;;7.38;1.73;;;1.60;99.90;;;;;;5072155;28;20384;-68
2021/03/05 06:11:36;;;;;;;9.18;2.15;;;1.60;99.90;;;;;;5073266;28;20039;-68
2021/03/05 06:14:14;;;;;;;11.63;2.00;;;1.50;99.90;;;;;;5072807;28;20045;-68
2021/03/05 06:17:01;;;;;;;6.47;1.73;;;1.50;99.90;;;;;;5073764;28;20105;-68
2021/03/05 06:19:28;;;;;;;7.95;1.63;;;1.50;99.90;;;;;;5071110;28;20016;-68
2021/03/05 06:21:54;;;;;;;6.73;2.40;;;1.50;99.90;;;;;;5068147;28;20480;-68
2021/03/05 06:24:20;;;;;;;13.80;1.92;;;1.50;99.90;;;;;;5072212;28;20041;-68
2021/03/05 06:26:50;;;;;;;7.90;2.55;;;1.50;99.90;;;;;;5073320;28;20487;-68
2021/03/05 06:29:17;;;;;;;9.45;2.28;;;1.50;99.90;;;;;;5073261;28;20128;-68
2021/03/05 06:31:54;;;;;;;6.88;2.55;;;1.50;99.90;;;;;;5072550;28;20032;-68
2021/03/05 06:34:20;;;;;;;9.65;2.08;;;1.50;99.90;;;;;;5072793;28;20384;-67
2021/03/05 06:37:06;;;;;;;22.33;4.05;;;1.50;99.90;;;;;;5071826;28;20108;-68
2021/03/05 06:39:34;;;;;;;15.85;3.45;;;1.60;99.90;;;;;;5071933;28;20506;-68
2021/03/05 06:42:02;;;;;;;11.63;2.15;;;1.60;99.90;;;;;;5071506;28;20170;-71
2021/03/05 06:44:28;;;;;;;17.80;3.55;;;1.60;99.90;;;;;;5072526;28;20035;-69
2021/03/05 06:46:54;;;;;;;7.20;2.25;;;1.60;99.90;;;;;;5072652;28;20017;-69
2021/03/05 06:49:21;;;;;;;11.52;3.38;;;1.70;99.90;;;;;;5072341;28;20043;-69
2021/03/05 06:51:55;;;;;;;10.68;3.13;;;1.70;99.90;;;;;;5073561;28;20028;-69
2021/03/05 06:54:21;;;;;;;12.88;2.13;;;1.80;99.90;;;;;;5072048;28;20032;-68
2021/03/05 06:56:49;;;;;;;21.10;3.10;;;1.80;99.90;;;;;;5073008;28;20385;-68
2021/03/05 06:59:19;;;;;;;;;;;1.80;99.90;;;;;;5073497;28;20073;-69
2021/03/05 07:01:58;;;;;;;15.68;2.33;;;1.90;99.90;;;;;;5071531;28;19935;-68
2021/03/05 07:04:27;;;;;;;8.10;2.67;;;2.00;99.90;;;;;;5078636;28;20031;-69
2021/03/05 07:07:12;;;;;;;13.32;2.45;;;2.00;99.90;;;;;;5071901;28;20400;-68
2021/03/05 07:09:52;;;;;;;10.98;2.50;;;2.00;99.90;;;;;;5072896;28;20358;-68
2021/03/05 07:12:24;;;;;;;10.25;2.38;;;2.10;99.90;;;;;;5072354;28;20028;-68
2021/03/05 07:15:11;;;;;;;8.95;2.10;;;2.10;99.90;;;;;;5070822;28;20032;-68
2021/03/05 07:17:37;;;;;;;6.72;2.08;;;2.20;99.90;;;;;;5070417;28;20075;-68
2021/03/05 07:20:04;;;;;;;6.97;2.13;;;2.20;99.90;;;;;;5072184;28;20036;-67
2021/03/05 07:22:31;;;;;;;12.73;2.77;;;2.30;99.90;;;;;;5070795;28;20120;-69
2021/03/05 07:24:58;;;;;;;12.60;2.47;;;2.30;99.90;;;;;;5073121;28;20099;-69
2021/03/05 07:27:32;;;;;;;9.45;2.50;;;2.40;99.90;;;;;;5070935;28;20028;-69
2021/03/05 07:30:00;;;;;;;7.80;1.90;;;2.30;99.90;;;;;;5070872;28;20048;-68
2021/03/05 07:32:34;;;;;;;14.93;2.25;;;2.40;99.90;;;;;;5072685;28;20028;-68
2021/03/05 07:35:12;;;;;;;37.45;5.35;;;2.50;99.90;;;;;;5073426;28;20484;-68
2021/03/05 07:37:54;;;;;;;20.85;3.83;;;2.50;99.90;;;;;;5071344;28;20028;-68
2021/03/05 07:40:21;;;;;;;8.38;2.08;;;2.60;99.90;;;;;;5073606;28;20058;-68
2021/03/05 07:42:46;;;;;;;6.47;2.75;;;2.70;99.90;;;;;;5072377;28;20115;-68
2021/03/05 07:45:14;;;;;;;16.10;2.53;;;2.70;99.90;;;;;;5072872;28;20441;-68
2021/03/05 07:47:42;;;;;;;9.13;2.17;;;2.90;99.90;;;;;;5071327;28;20123;-68
2021/03/05 07:50:09;;;;;;;;;;;3.00;99.90;;;;;;5071238;28;20066;-68
2021/03/05 07:52:36;;;;;;;11.70;1.73;;;3.00;99.90;;;;;;5067935;28;19913;-70
2021/03/05 07:55:03;;;;;;;8.25;1.52;;;3.00;99.90;;;;;;5071201;28;20485;-68
2021/03/05 07:57:28;;;;;;;6.10;1.58;;;3.00;99.90;;;;;;5069477;28;20385;-69
2021/03/05 07:59:56;;;;;;;14.18;2.65;;;3.20;99.90;;;;;;5064143;28;20083;-67
2021/03/05 08:02:26;;;;;;;14.88;2.42;;;3.20;99.90;;;;;;5068464;28;20373;-68
2021/03/05 08:05:06;;;;;;;19.20;2.90;;;3.20;99.90;;;;;;5071921;28;20020;-68
2021/03/05 08:07:36;;;;;;;15.23;1.75;;;3.30;99.90;;;;;;5072464;28;20392;-67
2021/03/05 08:10:03;;;;;;;18.95;2.20;;;3.30;99.90;;;;;;5072249;28;20492;-69
2021/03/05 08:12:45;;;;;;;11.98;3.10;;;3.40;99.90;;;;;;5069514;28;20036;-68
2021/03/05 08:15:11;;;;;;;11.43;1.58;;;3.20;99.90;;;;;;5064735;28;20079;-69
2021/03/05 08:17:48;;;;;;;12.38;2.55;;;3.30;99.90;;;;;;5068736;28;20036;-69
2021/03/05 08:20:16;;;;;;;6.38;1.45;;;3.50;99.90;;;;;;5072590;28;20032;-69
2021/03/05 08:23:01;;;;;;;10.63;2.85;;;3.50;99.90;;;;;;5070931;28;20040;-68
2021/03/05 08:25:48;;;;;;;6.90;1.48;;;3.70;99.90;;;;;;5068864;28;20020;-69
2021/03/05 08:28:36;;;;;;;6.55;2.70;;;3.80;99.90;;;;;;5067122;28;20017;-68
2021/03/05 08:31:02;;;;;;;4.32;1.80;;;3.80;99.90;;;;;;5071490;28;20102;-72
2021/03/05 08:33:29;;;;;;;9.10;1.35;;;3.90;99.90;;;;;;5070805;28;20423;-68
2021/03/05 08:35:55;;;;;;;8.77;1.03;;;4.00;99.90;;;;;;5070770;28;20049;-69
2021/03/05 08:38:31;;;;;;;11.77;0.70;;;3.90;99.90;;;;;;5068960;28;20098;-69
2021/03/05 08:41:03;;;;;;;6.20;1.05;;;3.90;99.90;;;;;;5071768;28;20058;-70
2021/03/05 08:43:30;;;;;;;3.83;1.00;;;4.10;99.90;;;;;;5076207;28;20016;-68
2021/03/05 08:46:17;;;;;;;5.63;0.95;;;4.30;99.90;;;;;;5062468;28;20524;-69
2021/03/05 08:48:45;;;;;;;6.57;0.93;;;4.30;99.90;;;;;;5073156;28;20021;-69
2021/03/05 08:51:20;;;;;;;2.25;0.75;;;4.40;99.90;;;;;;5073951;28;20023;-69
2021/03/05 08:53:54;;;;;;;5.15;1.05;;;4.40;99.90;;;;;;5074967;28;20557;-68
2021/03/05 08:56:31;;;;;;;0.50;0.43;;;4.50;99.90;;;;;;5073881;28;20029;-69
2021/03/05 08:59:04;;;;;;;8.38;0.60;;;4.50;99.90;;;;;;5073283;28;20431;-68
2021/03/05 09:01:38;;;;;;;2.63;0.65;;;4.40;99.90;;;;;;5071561;28;20466;-69
2021/03/05 09:04:17;;;;;;;8.02;0.77;;;4.50;99.90;;;;;;5071892;28;20086;-69
2021/03/05 09:06:56;;;;;;;5.80;0.90;;;4.40;99.90;;;;;;5071419;28;20044;-69
2021/03/05 09:09:24;;;;;;;5.75;0.57;;;4.50;99.90;;;;;;5075896;28;20444;-69
2021/03/05 09:12:09;;;;;;;;;;;4.70;99.90;;;;;;5074555;28;20036;-69
2021/03/05 09:14:35;;;;;;;1.75;0.40;;;4.50;99.90;;;;;;5073049;28;19908;-69
2021/03/05 09:17:02;;;;;;;6.50;2.20;;;4.60;99.90;;;;;;5074756;28;20039;-69
2021/03/05 09:19:42;;;;;;;4.25;1.02;;;4.70;99.90;;;;;;5074156;28;20485;-70
2021/03/05 09:22:12;;;;;;;3.03;0.20;;;4.70;99.90;;;;;;5072644;28;20032;-69
2021/03/05 09:24:58;;;;;;;2.53;0.40;;;4.80;99.90;;;;;;5073636;28;20035;-70
2021/03/05 09:27:32;;;;;;;4.50;0.70;;;4.90;99.90;;;;;;5072922;28;20490;-69
2021/03/05 09:29:59;;;;;;;1.15;0.60;;;4.90;99.60;;;;;;5069694;28;20527;-75
2021/03/05 09:32:26;;;;;;;11.27;1.65;;;5.10;99.90;;;;;;5073510;28;20060;-72
2021/03/05 09:34:53;;;;;;;5.65;0.60;;;5.10;99.70;;;;;;5074556;28;20468;-69
2021/03/05 09:37:24;;;;;;;1.55;0.50;;;5.30;99.00;;;;;;5072925;28;20024;-70
2021/03/05 09:39:51;;;;;;;5.30;0.68;;;5.40;97.90;;;;;;5069353;28;20031;-68
2021/03/05 09:42:17;;;;;;;2.05;0.55;;;5.50;97.10;;;;;;5072810;28;20036;-69
2021/03/05 09:44:46;;;;;;;1.20;0.25;;;5.50;95.30;;;;;;5071760;28;20029;-69
2021/03/05 09:47:13;;;;;;;7.75;1.73;;;5.30;95.40;;;;;;5074601;28;20182;-67
2021/03/05 09:49:39;;;;;;;3.78;0.57;;;5.30;97.70;;;;;;5071147;28;20108;-68
2021/03/05 09:52:24;;;;;;;4.75;0.50;;;5.40;95.80;;;;;;5068220;28;20567;-68
2021/03/05 09:54:50;;;;;;;1.67;0.47;;;5.50;95.50;;;;;;5059051;28;20048;-70
2021/03/05 09:57:21;;;;;;;1.33;0.60;;;5.60;94.20;;;;;;5074452;28;20056;-68
2021/03/05 09:59:49;;;;;;;0.57;0.22;;;5.80;94.30;;;;;;5074289;28;20039;-69
2021/03/05 10:02:22;;;;;;;1.45;0.20;;;5.90;93.00;;;;;;5074226;28;20020;-69
2021/03/05 10:04:50;;;;;;;3.42;0.35;;;6.00;92.60;;;;;;5072365;28;20094;-68
2021/03/05 10:07:16;;;;;;;0.75;0.30;;;6.10;92.20;;;;;;5069650;28;20041;-69
2021/03/05 10:09:42;;;;;;;0.75;0.20;;;6.00;91.50;;;;;;5070967;28;20017;-67
2021/03/05 10:12:08;;;;;;;0.68;0.20;;;6.00;91.80;;;;;;5070302;28;20451;-67
2021/03/05 10:14:36;;;;;;;3.83;0.28;;;6.00;91.70;;;;;;5073087;28;20039;-69
2021/03/05 10:17:17;;;;;;;0.65;0.35;;;6.00;91.70;;;;;;5074065;28;20021;-68
2021/03/05 10:19:44;;;;;;;5.57;0.47;;;6.30;91.90;;;;;;5071367;28;20119;-69
2021/03/05 10:22:11;;;;;;;5.72;0.57;;;6.40;92.60;;;;;;5073680;28;20480;-69
2021/03/05 10:24:37;;;;;;;0.50;0.30;;;6.40;91.30;;;;;;5070547;28;20032;-69
2021/03/05 10:27:16;;;;;;;2.20;0.32;;;6.40;91.60;;;;;;5071841;28;20020;-68
2021/03/05 10:29:51;;;;;;;1.02;0.10;;;6.30;92.10;;;;;;5074176;28;20047;-69
2021/03/05 10:32:25;;;;;;;3.20;0.43;;;6.40;91.10;;;;;;5071978;28;20021;-68
2021/03/05 10:34:53;;;;;;;4.85;0.45;;;6.40;89.50;;;;;;5070705;28;20051;-68
2021/03/05 10:37:19;;;;;;;4.25;0.20;;;6.20;92.40;;;;;;5069658;28;20104;-68
2021/03/05 10:39:47;;;;;;;6.80;1.08;;;6.30;89.20;;;;;;5070659;28;20040;-68
2021/03/05 10:42:14;;;;;;;1.10;0.20;;;6.30;90.30;;;;;;5073492;28;20028;-69
2021/03/05 10:44:41;;;;;;;3.50;0.28;;;6.30;89.30;;;;;;5071600;28;20032;-68
2021/03/05 10:47:09;;;;;;;1.33;0.32;;;6.30;90.20;;;;;;5072641;28;20039;-67
2021/03/05 10:49:38;;;;;;;1.10;0.40;;;6.50;90.00;;;;;;5067668;28;20390;-69
2021/03/05 10:52:05;;;;;;;3.13;0.88;;;6.50;90.20;;;;;;5073991;28;20294;-69
2021/03/05 10:54:30;;;;;;;0.50;0.20;;;6.50;90.40;;;;;;5072527;28;20733;-68
2021/03/05 10:56:56;;;;;;;6.80;0.50;;;6.30;91.20;;;;;;5072107;28;20099;-70
2021/03/05 10:59:23;;;;;;;1.15;0.40;;;6.30;92.00;;;;;;5071539;28;20029;-69
2021/03/05 11:01:53;;;;;;;2.90;0.68;;;6.40;92.30;;;;;;5068428;28;20037;-69
2021/03/05 11:04:19;;;;;;;4.18;0.40;;;6.50;91.90;;;;;;5069831;28;20020;-69
2021/03/05 11:06:46;;;;;;;5.40;0.10;;;6.60;91.90;;;;;;5070159;28;20051;-68
2021/03/05 11:09:12;;;;;;;1.02;0.43;;;6.70;91.90;;;;;;5069370;28;20017;-74
2021/03/05 11:11:42;;;;;;;5.07;0.70;;;6.80;92.70;;;;;;5072463;28;20024;-66
2021/03/05 11:14:07;;;;;;;1.80;0.50;;;6.80;92.10;;;;;;5070400;28;20477;-67
2021/03/05 11:16:33;;;;;;;7.25;0.40;;;6.70;91.80;;;;;;5070817;28;20142;-67
2021/03/05 11:18:59;;;;;;;0.47;0.25;;;6.60;92.40;;;;;;5070765;28;20048;-68
2021/03/05 11:21:24;;;;;;;1.27;0.30;;;6.60;93.10;;;;;;5070686;28;20024;-69
2021/03/05 11:23:51;;;;;;;15.10;0.70;;;6.70;91.80;;;;;;5066150;28;20338;-68
2021/03/05 11:26:17;;;;;;;1.10;0.35;;;6.80;91.90;;;;;;5070556;28;20012;-66
2021/03/05 11:28:43;;;;;;;0.90;0.30;;;6.90;92.10;;;;;;5069017;28;20032;-68
2021/03/05 11:31:10;;;;;;;2.60;0.38;;;6.80;91.90;;;;;;5071266;28;20107;-67
2021/03/05 11:33:36;;;;;;;2.92;0.40;;;6.80;92.80;;;;;;5066965;28;20025;-66
2021/03/05 11:36:02;;;;;;;6.80;1.30;;;6.80;92.90;;;;;;5072456;28;20505;-67
2021/03/05 11:38:28;;;;;;;2.83;0.22;;;6.80;92.50;;;;;;5067447;28;20012;-68
2021/03/05 11:40:54;;;;;;;2.30;0.40;;;6.80;92.20;;;;;;5072216;28;20055;-70
2021/03/05 11:43:19;;;;;;;6.68;0.45;;;6.80;93.30;;;;;;5070643;28;20108;-67
2021/03/05 11:45:45;;;;;;;1.25;0.43;;;6.90;92.20;;;;;;5071886;28;20443;-67
2021/03/05 11:48:11;;;;;;;4.35;0.70;;;7.00;92.70;;;;;;5070466;28;20078;-68
2021/03/05 11:50:37;;;;;;;1.35;0.50;;;7.30;92.50;;;;;;5073016;28;20095;-68
2021/03/05 11:53:02;;;;;;;2.15;0.22;;;7.40;90.80;;;;;;5071959;28;20511;-69
2021/03/05 11:55:32;;;;;;;3.80;0.75;;;7.40;91.10;;;;;;5069476;28;20032;-68
2021/03/05 11:58:01;;;;;;;4.72;0.65;;;7.40;90.50;;;;;;5068962;28;20048;-69
2021/03/05 12:00:28;;;;;;;2.80;0.50;;;7.50;90.90;;;;;;5067704;28;20020;-68
2021/03/05 12:02:54;;;;;;;2.38;0.45;;;7.20;92.10;;;;;;5070859;28;20032;-68
2021/03/05 12:05:20;;;;;;;2.05;0.60;;;7.30;92.20;;;;;;5064986;28;20016;-69
2021/03/05 12:07:45;;;;;;;1.05;0.40;;;7.60;91.90;;;;;;5069224;28;20071;-67
2021/03/05 12:10:12;;;;;;;3.17;0.45;;;7.90;89.30;;;;;;5068797;28;20024;-68
2021/03/05 12:12:37;;;;;;;2.58;0.38;;;7.90;89.40;;;;;;5060512;28;20111;-68
2021/03/05 12:15:04;;;;;;;4.00;0.52;;;7.80;88.30;;;;;;5068081;28;20064;-69
2021/03/05 12:17:30;;;;;;;5.40;0.45;;;8.00;85.30;;;;;;5071947;28;20033;-68
2021/03/05 12:19:55;;;;;;;1.20;0.32;;;8.00;87.20;;;;;;5072673;28;20028;-68
2021/03/05 12:22:21;;;;;;;6.75;0.15;;;8.00;86.00;;;;;;5070038;28;20498;-67
2021/03/05 12:24:47;;;;;;;1.95;0.22;;;8.10;85.60;;;;;;5082738;28;20033;-68
2021/03/05 12:27:12;;;;;;;3.13;0.50;;;8.30;87.80;;;;;;5070482;28;20031;-66
2021/03/05 12:29:38;;;;;;;1.17;0.70;;;8.50;85.30;;;;;;5071813;28;20021;-65
2021/03/05 12:32:04;;;;;;;1.33;0.30;;;8.40;82.10;;;;;;5071845;28;20062;-67
2021/03/05 12:34:30;;;;;;;1.00;0.47;;;8.30;80.20;;;;;;5071533;28;20028;-67
2021/03/05 12:36:55;;;;;;;2.47;0.52;;;8.50;80.70;;;;;;5072290;28;20036;-67
2021/03/05 12:39:21;;;;;;;6.75;0.60;;;8.80;82.70;;;;;;5071212;28;20407;-67
2021/03/05 12:41:47;;;;;;;0.88;0.28;;;9.00;84.10;;;;;;5069238;28;20056;-67
2021/03/05 12:44:12;;;;;;;4.78;0.57;;;9.20;81.80;;;;;;5071002;28;20020;-68
2021/03/05 12:46:38;;;;;;;1.48;0.40;;;9.30;86.20;;;;;;5069813;28;20020;-68
2021/03/05 12:49:04;;;;;;;5.13;0.73;;;9.10;87.10;;;;;;5062338;28;20053;-68
2021/03/05 12:51:29;;;;;;;2.67;0.40;;;8.80;88.00;;;;;;5062875;28;20025;-67
2021/03/05 12:53:55;;;;;;;0.82;0.63;;;8.40;88.60;;;;;;5070164;28;20032;-67
2021/03/05 12:56:21;;;;;;;1.40;0.80;;;8.00;90.40;;;;;;5070967;28;20074;-68
2021/03/05 12:58:46;;;;;;;5.55;1.13;;;8.00;90.60;;;;;;5069816;28;20048;-67
2021/03/05 13:01:12;;;;;;;3.58;0.52;;;7.60;91.10;;;;;;5072257;28;20024;-68